Hauptseite
METAR-TAF:

METAR-TAF

Flughäfen :

Flughafen Touquet-Côte d’Opale

Le Touquet, Frankreich

Breite: 50-30-53N, Länge: 001-37-39E, Höhe: 6 m

Beobachtung

Neuester Wetterbericht von vor 23 Minuten, um 03:30 UTC
Wind 2 kt aus unterschiedlichen Richtungen
Temperatur 3°C
Luftfeuchtigkeit 100%
Luftdruck 1034 hPa
Sichtweite 10 km oder mehr
Leicht bewölkt in der Höhe von 2800 ft

METAR: LFAT 230330Z AUTO VRB02KT 9999 FEW028 03/03 Q1034

Zeit: 05:53 (03:53 UTC)

Prognose

Neuester Wetterbericht von vor 13 Stunden und 53 Minuten, um 14:00 UTC
Gültige Prognose vom 22 um 15 UTC bis 22 um 24 UTC
Wind 12 kt aus Nord/Nordost
Sichtweite 10 km oder mehr
Aufgelockert bewölkt in der Höhe von 4000 ft
Übergehend zu
vom 22 um 20 UTC bis 22 um 22 UTC
Wind 2 kt aus unterschiedlichen Richtungen

TAF: LFAT 221400Z 2215/2224 02012KT 9999 SCT040 BECMG 2220/2222 VRB02KT

Wetterbeobachtungen und Prognosen von mehr als 4000 Flughäfen (METAR und TAF Bericht).

Die verfügbaren Stationen werden durch gelbe und rote Markierungen auf der Karte dargestellt.

Führen Sie die Maus auf sie, um den Namen der Station zu sehen.

Darauf klicken, um die Beobachtung von Wetterbeobachtungen und Prognosen zu sehen.

Um die Karte zu ändern : klicken Sie auf den grünen Tasten mit einem schwarzen Kreuz Zum Vergrößern, auf den grünen Button mit einem Gedankenstrich zu verkleinern, oder auf die grünen Pfeile für benachbarte Karten.


METAR-TAF: